createdAt,value
2018-08-18T00:07:50.172Z,20.40
2018-08-18T00:12:53.422Z,20.40
2018-08-18T00:17:56.715Z,20.40
2018-08-18T00:22:59.982Z,20.60
2018-08-18T00:28:25.193Z,20.60
2018-08-18T00:33:28.444Z,20.60
2018-08-18T00:38:31.681Z,20.50
2018-08-18T00:43:34.948Z,20.50
2018-08-18T00:48:38.191Z,20.60
2018-08-18T00:53:41.462Z,20.60
2018-08-18T00:58:52.800Z,20.60
2018-08-18T01:03:58.111Z,20.50
2018-08-18T01:09:02.052Z,20.50
2018-08-18T01:14:12.292Z,20.30
2018-08-18T01:19:15.500Z,20.10
2018-08-18T01:24:19.147Z,19.90
2018-08-18T01:29:22.378Z,19.90
2018-08-18T01:39:28.606Z,19.60
2018-08-18T01:44:31.857Z,19.60
2018-08-18T01:49:36.934Z,19.60
2018-08-18T01:54:40.214Z,19.60
2018-08-18T01:59:44.783Z,19.60
2018-08-18T02:04:48.402Z,19.50
2018-08-18T02:09:51.650Z,19.50
2018-08-18T02:14:55.431Z,19.40
2018-08-18T02:25:02.111Z,19.30
2018-08-18T02:30:23.211Z,19.30
2018-08-18T02:35:26.450Z,19.30
2018-08-18T02:40:29.702Z,19.20
2018-08-18T02:45:32.972Z,19.20
2018-08-18T02:50:36.350Z,19.20
2018-08-18T02:55:39.633Z,19.10
2018-08-18T03:00:42.960Z,19.10
2018-08-18T03:05:46.271Z,18.90
2018-08-18T03:10:49.551Z,18.80
2018-08-18T03:15:52.844Z,18.60
2018-08-18T03:20:56.107Z,18.60
2018-08-18T03:25:59.398Z,18.60
2018-08-18T03:31:02.681Z,18.70
2018-08-18T03:36:21.541Z,18.60
2018-08-18T03:41:25.963Z,18.50
2018-08-18T03:46:29.223Z,18.30
2018-08-18T03:51:37.878Z,18.20
2018-08-18T03:56:41.420Z,18.10
2018-08-18T04:01:55.367Z,18.00
2018-08-18T04:06:59.540Z,17.90
2018-08-18T04:12:04.984Z,17.80
2018-08-18T04:17:31.833Z,17.90
2018-08-18T04:22:35.156Z,17.90
2018-08-18T04:27:39.996Z,17.90
2018-08-18T04:32:50.500Z,17.90
2018-08-18T04:37:54.719Z,17.80
2018-08-18T04:42:59.339Z,17.80
2018-08-18T04:48:02.623Z,17.70
2018-08-18T04:53:05.943Z,17.80
2018-08-18T04:58:09.259Z,17.90
2018-08-18T05:03:12.556Z,18.10
2018-08-18T05:08:15.844Z,18.20
2018-08-18T05:13:19.120Z,18.30
2018-08-18T05:18:22.413Z,18.40
2018-08-18T05:23:25.740Z,18.40
2018-08-18T05:28:29.017Z,18.40
2018-08-18T05:33:32.283Z,18.50
2018-08-18T05:38:35.620Z,18.80
2018-08-18T05:43:38.996Z,19.00
2018-08-18T05:48:42.285Z,19.20
2018-08-18T05:53:45.628Z,19.40
2018-08-18T05:58:53.924Z,19.60
2018-08-18T06:04:06.475Z,20.00
2018-08-18T06:09:11.519Z,20.00
2018-08-18T06:14:15.319Z,20.30
2018-08-18T06:19:18.731Z,20.20
2018-08-18T06:24:22.104Z,20.40
2018-08-18T06:29:25.403Z,20.90
2018-08-18T06:34:30.668Z,20.90
2018-08-18T06:39:49.906Z,21.30
2018-08-18T06:44:53.287Z,22.30
2018-08-18T06:49:56.577Z,22.60
2018-08-18T06:55:00.063Z,23.60
2018-08-18T07:00:11.792Z,24.20
2018-08-18T07:05:16.387Z,24.00
2018-08-18T07:10:31.504Z,24.50
2018-08-18T07:15:36.048Z,24.10
2018-08-18T07:20:39.336Z,24.20
2018-08-18T07:25:50.467Z,24.30
2018-08-18T07:30:53.971Z,24.70
2018-08-18T07:35:57.252Z,25.60
2018-08-18T07:41:00.548Z,24.50
2018-08-18T07:46:07.327Z,25.40
2018-08-18T07:51:10.578Z,26.20
2018-08-18T07:56:13.833Z,26.40
2018-08-18T08:01:17.145Z,26.00
2018-08-18T08:06:20.461Z,25.30
2018-08-18T08:11:25.154Z,26.50
2018-08-18T08:16:28.642Z,27.10
2018-08-18T08:21:33.121Z,27.80
2018-08-18T08:26:36.753Z,27.90
2018-08-18T08:31:40.012Z,27.10
2018-08-18T08:36:43.384Z,27.30
2018-08-18T08:41:46.623Z,27.40
2018-08-18T08:47:02.466Z,27.50
2018-08-18T08:52:06.212Z,27.50
2018-08-18T08:57:10.744Z,26.10
2018-08-18T09:02:14.773Z,26.90
2018-08-18T09:07:18.151Z,27.10
2018-08-18T09:12:21.456Z,28.40
2018-08-18T09:17:24.726Z,28.50
2018-08-18T09:22:28.678Z,27.10
2018-08-18T09:27:34.199Z,25.80
2018-08-18T09:32:37.492Z,27.60
2018-08-18T09:37:44.092Z,27.80
2018-08-18T09:42:47.827Z,29.20
2018-08-18T09:47:51.135Z,28.80
2018-08-18T09:52:54.727Z,30.50
2018-08-18T09:57:58.039Z,31.40
2018-08-18T10:03:01.357Z,30.80
2018-08-18T10:08:05.662Z,30.50
2018-08-18T10:13:09.181Z,31.50
2018-08-18T10:18:12.592Z,31.90
2018-08-18T10:23:15.884Z,32.30
2018-08-18T10:28:19.463Z,32.30
2018-08-18T10:33:22.761Z,32.20
2018-08-18T10:38:26.112Z,32.40
2018-08-18T10:43:29.760Z,32.40
2018-08-18T10:48:33.064Z,32.90
2018-08-18T10:53:36.941Z,32.80
2018-08-18T10:58:51.504Z,33.70
2018-08-18T11:03:55.155Z,32.90
2018-08-18T11:08:58.892Z,32.10
2018-08-18T11:14:02.619Z,32.30
2018-08-18T11:19:06.529Z,32.20
2018-08-18T11:24:10.166Z,32.80
2018-08-18T11:29:17.195Z,33.30
2018-08-18T11:34:20.460Z,33.40
2018-08-18T11:39:24.742Z,34.20
2018-08-18T11:44:28.256Z,33.50
2018-08-18T11:49:31.548Z,34.10
2018-08-18T11:54:34.949Z,34.30
2018-08-18T11:59:38.248Z,34.40
2018-08-18T12:04:41.800Z,34.70
2018-08-18T12:09:50.520Z,35.70
2018-08-18T12:14:54.681Z,34.90
2018-08-18T12:20:02.408Z,32.40
2018-08-18T12:25:05.739Z,34.10
2018-08-18T12:30:18.965Z,34.80
2018-08-18T12:35:25.400Z,34.70
2018-08-18T12:40:29.088Z,33.90
2018-08-18T12:45:32.433Z,32.70
2018-08-18T12:50:35.824Z,31.80
2018-08-18T12:55:39.357Z,30.60
2018-08-18T13:00:43.037Z,30.70
2018-08-18T13:05:46.330Z,31.10
2018-08-18T13:10:49.826Z,30.70
2018-08-18T13:15:56.993Z,30.40
2018-08-18T13:21:00.503Z,31.10
2018-08-18T13:26:04.153Z,31.10
2018-08-18T13:31:07.436Z,31.30
2018-08-18T13:36:28.795Z,31.60
2018-08-18T13:46:49.568Z,32.10
2018-08-18T13:51:53.605Z,32.10
2018-08-18T13:56:57.369Z,31.90
2018-08-18T14:07:49.296Z,30.70
2018-08-18T14:12:53.449Z,31.00
2018-08-18T14:18:02.205Z,31.00
2018-08-18T14:23:07.634Z,30.70
2018-08-18T14:28:10.961Z,30.00
2018-08-18T14:33:14.287Z,29.80
2018-08-18T14:38:17.837Z,28.50
2018-08-18T14:43:28.199Z,28.10
2018-08-18T14:48:32.095Z,27.90
2018-08-18T14:53:35.502Z,27.80
2018-08-18T14:58:43.285Z,27.70
2018-08-18T15:08:49.637Z,27.50
2018-08-18T15:13:52.832Z,27.40
2018-08-18T15:18:56.119Z,27.40
2018-08-18T15:23:59.403Z,27.30
2018-08-18T15:29:03.206Z,27.80
2018-08-18T15:34:06.521Z,27.40
2018-08-18T15:39:09.812Z,27.40
2018-08-18T15:44:13.177Z,27.20
2018-08-18T15:49:16.757Z,27.00
2018-08-18T15:54:20.842Z,27.10
2018-08-18T15:59:24.258Z,27.00
2018-08-18T16:04:27.533Z,27.00
2018-08-18T16:09:30.827Z,27.30
2018-08-18T16:14:34.099Z,27.50
2018-08-18T16:19:37.512Z,28.00
2018-08-18T16:24:45.503Z,28.70
2018-08-18T16:29:48.891Z,28.60
2018-08-18T16:34:59.231Z,28.90
2018-08-18T16:40:03.682Z,29.90
2018-08-18T16:45:07.096Z,30.40
2018-08-18T16:50:10.505Z,29.40
2018-08-18T16:55:13.818Z,28.50
2018-08-18T17:00:17.124Z,27.90
2018-08-18T17:05:20.450Z,27.40
2018-08-18T17:10:23.734Z,27.10
2018-08-18T17:15:28.551Z,26.70
2018-08-18T17:20:34.976Z,26.70
2018-08-18T17:25:42.804Z,26.50
2018-08-18T17:30:49.031Z,26.30
2018-08-18T17:35:52.863Z,26.00
2018-08-18T17:40:56.133Z,26.10
2018-08-18T17:46:01.467Z,26.10
2018-08-18T17:51:05.334Z,25.50
2018-08-18T17:56:08.728Z,25.10
2018-08-18T18:06:15.596Z,24.80
2018-08-18T18:11:19.448Z,24.50
2018-08-18T18:16:27.422Z,24.10
2018-08-18T18:21:31.016Z,27.30
2018-08-18T18:26:34.606Z,23.90
2018-08-18T18:31:38.173Z,23.90
2018-08-18T18:36:41.782Z,23.70
2018-08-18T18:41:45.359Z,23.70
2018-08-18T18:46:48.935Z,23.60
2018-08-18T18:51:52.542Z,23.40
2018-08-18T18:56:55.880Z,23.50
2018-08-18T19:01:59.227Z,23.50
2018-08-18T19:07:04.427Z,23.40
2018-08-18T19:12:07.716Z,23.30
2018-08-18T19:17:11.348Z,23.20
2018-08-18T19:22:15.327Z,23.10
2018-08-18T19:27:19.208Z,22.90
2018-08-18T19:32:23.055Z,22.90
2018-08-18T19:37:26.760Z,23.10
2018-08-18T19:42:30.695Z,23.10
2018-08-18T19:47:38.721Z,23.00
2018-08-18T19:52:42.670Z,23.00
2018-08-18T19:58:02.287Z,22.80
2018-08-18T20:03:09.363Z,22.30
2018-08-18T20:08:15.849Z,22.30
2018-08-18T20:13:21.079Z,22.40
2018-08-18T20:18:25.760Z,22.40
2018-08-18T20:23:30.064Z,22.30
2018-08-18T20:28:33.510Z,21.90
2018-08-18T20:33:37.904Z,21.80
2018-08-18T20:38:45.497Z,21.60
2018-08-18T20:43:50.106Z,21.40
2018-08-18T21:09:22.010Z,21.10
2018-08-18T21:19:31.527Z,21.00
2018-08-18T21:24:35.275Z,21.10
2018-08-18T21:34:46.966Z,21.00
2018-08-18T21:39:50.848Z,21.10
2018-08-18T21:44:54.953Z,21.00
2018-08-18T21:49:58.417Z,21.00
2018-08-18T21:55:01.841Z,21.00
2018-08-18T22:05:12.453Z,20.90
2018-08-18T22:15:19.839Z,20.80
2018-08-18T22:25:26.893Z,20.70
2018-08-18T22:30:30.191Z,20.70
2018-08-18T22:35:33.497Z,20.60
2018-08-18T22:40:36.816Z,20.50
2018-08-18T22:45:40.072Z,20.50
2018-08-18T22:50:43.360Z,20.40
2018-08-18T22:55:46.645Z,20.40
2018-08-18T23:00:53.845Z,20.40
2018-08-18T23:05:58.315Z,20.40
2018-08-18T23:11:01.924Z,20.40
2018-08-18T23:16:05.380Z,20.30
2018-08-18T23:21:14.964Z,20.20
2018-08-18T23:26:18.246Z,20.20
2018-08-18T23:36:24.546Z,20.10
2018-08-18T23:41:27.808Z,20.10
2018-08-18T23:46:31.072Z,20.00
2018-08-18T23:51:40.083Z,19.90
2018-08-18T23:56:43.363Z,19.90
